createdAt,value
2022-10-05T00:01:13.499Z,102006.63
2022-10-05T00:06:16.853Z,101990.81
2022-10-05T00:11:22.309Z,102022.19
2022-10-05T00:16:24.207Z,102023.22
2022-10-05T00:21:24.438Z,102032.78
2022-10-05T00:26:26.392Z,102007.63
2022-10-05T00:31:26.866Z,102019.69
2022-10-05T00:36:37.613Z,102016.41
2022-10-05T00:42:31.092Z,102053.22
2022-10-05T00:47:55.653Z,102062.31
2022-10-05T00:53:12.847Z,102042.50
2022-10-05T00:58:49.412Z,102012.31
2022-10-05T01:04:05.359Z,102056.50
2022-10-05T01:09:15.731Z,102029.22
2022-10-05T01:14:35.306Z,102035.84
2022-10-05T01:19:56.326Z,102068.50
2022-10-05T01:25:18.344Z,102072.78
2022-10-05T01:30:20.400Z,102031.03
2022-10-05T01:35:27.532Z,102091.47
2022-10-05T01:40:40.525Z,102085.13
2022-10-05T01:45:53.504Z,102079.50
2022-10-05T01:51:41.860Z,102052.66
2022-10-05T01:57:21.311Z,102037.78
2022-10-05T02:02:21.945Z,102028.22
2022-10-05T02:07:31.108Z,102061.16
2022-10-05T02:12:33.975Z,102059.09
2022-10-05T02:17:37.539Z,102108.81
2022-10-05T02:22:42.258Z,102063.22
2022-10-05T02:27:59.624Z,102066.97
2022-10-05T02:33:07.987Z,102091.34
2022-10-05T02:38:20.885Z,102102.78
2022-10-05T02:43:21.790Z,102134.16
2022-10-05T02:48:28.645Z,102141.59
2022-10-05T02:53:59.575Z,102093.69
2022-10-05T02:59:21.255Z,102086.97
2022-10-05T03:04:40.128Z,102153.88
2022-10-05T03:10:05.556Z,102089.88
2022-10-05T03:15:41.350Z,102137.50
2022-10-05T03:20:54.323Z,102178.00
2022-10-05T03:26:15.938Z,102132.31
2022-10-05T03:31:42.936Z,102194.84
2022-10-05T03:37:00.279Z,102135.94
2022-10-05T03:42:27.164Z,102172.06
2022-10-05T03:47:40.316Z,102160.97
2022-10-05T03:53:21.811Z,102167.19
2022-10-05T03:58:34.133Z,102187.53
2022-10-05T04:03:35.707Z,102230.03
2022-10-05T04:08:54.590Z,102177.09
2022-10-05T04:13:58.717Z,102225.44
2022-10-05T04:19:11.879Z,102210.09
2022-10-05T04:24:15.217Z,102214.03
2022-10-05T04:29:48.194Z,102276.50
2022-10-05T04:35:07.082Z,102288.22
2022-10-05T04:40:36.114Z,102228.50
2022-10-05T04:46:08.830Z,102284.81
2022-10-05T04:51:37.968Z,102271.66
2022-10-05T04:56:42.303Z,102261.19
2022-10-05T05:02:04.479Z,102295.75
2022-10-05T05:07:23.930Z,102307.09
2022-10-05T05:12:53.146Z,102298.13
2022-10-05T05:18:01.009Z,102309.47
2022-10-05T05:23:14.198Z,102314.69
2022-10-05T05:28:31.516Z,102317.88
2022-10-05T05:33:49.485Z,102319.78
2022-10-05T05:39:28.450Z,102334.31
2022-10-05T05:44:38.527Z,102299.41
2022-10-05T05:49:45.292Z,102352.69
2022-10-05T05:54:57.684Z,102323.41
2022-10-05T06:00:15.307Z,102355.06
2022-10-05T06:05:35.954Z,102291.28
2022-10-05T06:10:52.994Z,102302.78
2022-10-05T06:16:25.397Z,102362.53
2022-10-05T06:21:36.634Z,102323.78
2022-10-05T06:26:56.023Z,102393.44
2022-10-05T06:32:06.879Z,102398.06
2022-10-05T06:37:33.554Z,102390.84
2022-10-05T06:43:22.010Z,102422.75
2022-10-05T06:48:45.106Z,102426.44
2022-10-05T06:54:07.281Z,102368.78
2022-10-05T06:59:26.870Z,102377.19
2022-10-05T07:05:02.402Z,102423.06
2022-10-05T07:10:14.829Z,102409.13
2022-10-05T07:15:45.057Z,102409.72
2022-10-05T07:21:00.785Z,102362.53
2022-10-05T07:26:26.896Z,102364.63
2022-10-05T07:31:42.360Z,102369.50
2022-10-05T07:37:18.569Z,102394.34
2022-10-05T07:42:28.642Z,102430.53
2022-10-05T07:47:40.307Z,102376.13
2022-10-05T07:52:46.418Z,102401.25
2022-10-05T07:58:06.867Z,102431.19
2022-10-05T08:03:47.422Z,102367.69
2022-10-05T08:09:15.519Z,102413.09
2022-10-05T08:14:25.189Z,102442.47
2022-10-05T08:19:26.878Z,102445.34
2022-10-05T08:24:45.531Z,102447.63
2022-10-05T08:29:59.346Z,102457.13
2022-10-05T08:35:21.220Z,102450.25
2022-10-05T08:40:22.218Z,102446.03
2022-10-05T08:45:54.448Z,102449.03
2022-10-05T08:51:14.605Z,102451.03
2022-10-05T08:56:19.867Z,102453.41
2022-10-05T09:01:35.731Z,102411.19
2022-10-05T09:07:01.296Z,102457.25
2022-10-05T09:12:14.404Z,102457.94
2022-10-05T09:17:26.334Z,102404.19
2022-10-05T09:22:30.576Z,102462.22
2022-10-05T09:27:40.247Z,102406.28
2022-10-05T09:33:06.880Z,102468.72
2022-10-05T09:38:19.916Z,102449.66
2022-10-05T09:43:42.435Z,102456.19
2022-10-05T09:48:43.080Z,102452.75
2022-10-05T09:53:55.862Z,102453.13
2022-10-05T09:59:07.609Z,102449.03
2022-10-05T10:04:15.415Z,102438.13
2022-10-05T10:09:41.714Z,102396.75
2022-10-05T10:15:02.960Z,102439.16
2022-10-05T10:20:20.244Z,102431.09
2022-10-05T10:25:42.543Z,102388.06
2022-10-05T10:31:30.773Z,102380.31
2022-10-05T10:36:49.628Z,102417.38
2022-10-05T10:42:26.368Z,102408.59
2022-10-05T10:47:53.407Z,102401.81
2022-10-05T10:53:35.264Z,102390.38
2022-10-05T10:58:52.604Z,102384.75
2022-10-05T11:04:21.706Z,102378.91
2022-10-05T11:09:28.774Z,102370.03
2022-10-05T11:14:59.932Z,102353.38
2022-10-05T11:20:13.103Z,102312.41
2022-10-05T11:25:33.367Z,102346.53
2022-10-05T11:30:59.902Z,102342.28
2022-10-05T11:36:46.898Z,102336.84
2022-10-05T11:42:18.529Z,102337.59
2022-10-05T11:47:40.848Z,102323.00
2022-10-05T11:53:06.262Z,102354.63
2022-10-05T11:58:15.755Z,102366.34
2022-10-05T12:03:24.463Z,102375.09
2022-10-05T12:08:26.808Z,102361.88
2022-10-05T12:13:52.495Z,102349.09
2022-10-05T12:19:14.830Z,102350.81
2022-10-05T12:24:30.239Z,102296.81
2022-10-05T12:29:56.947Z,102287.50
2022-10-05T12:35:36.674Z,102311.41
2022-10-05T12:40:46.522Z,102289.25
2022-10-05T12:45:57.614Z,102310.84
2022-10-05T12:51:27.136Z,102286.06
2022-10-05T12:56:48.009Z,102336.94
2022-10-05T13:02:12.572Z,102328.84
2022-10-05T13:07:39.459Z,102324.72
2022-10-05T13:12:50.046Z,102327.75
2022-10-05T13:18:18.212Z,102290.84
2022-10-05T13:23:35.214Z,102319.50
2022-10-05T13:28:43.810Z,102322.50
2022-10-05T13:33:51.457Z,102323.00
2022-10-05T13:38:58.696Z,102314.94
2022-10-05T13:44:27.015Z,102289.28
2022-10-05T13:49:33.889Z,102263.59
2022-10-05T13:55:07.035Z,102295.94
2022-10-05T14:00:26.262Z,102258.94
2022-10-05T14:05:27.827Z,102245.91
2022-10-05T14:10:43.769Z,102252.72
2022-10-05T14:15:42.521Z,102289.38
2022-10-05T14:20:43.563Z,102263.16
2022-10-05T14:25:54.141Z,102272.41
2022-10-05T14:31:34.894Z,102283.13
2022-10-05T14:36:35.764Z,102283.66
2022-10-05T14:41:39.765Z,102284.13
2022-10-05T14:46:54.932Z,102280.16
2022-10-05T14:51:55.447Z,102270.88
2022-10-05T14:57:19.475Z,102297.53
2022-10-05T15:02:42.419Z,102278.88
2022-10-05T15:07:50.142Z,102301.28
2022-10-05T15:12:53.991Z,102284.31
2022-10-05T15:18:01.210Z,102288.00
2022-10-05T15:23:08.747Z,102319.78
2022-10-05T15:28:36.826Z,102321.53
2022-10-05T15:33:41.141Z,102303.50
2022-10-05T15:39:00.694Z,102329.59
2022-10-05T15:44:08.447Z,102324.09
2022-10-05T15:49:33.985Z,102335.69
2022-10-05T15:54:57.020Z,102315.41
2022-10-05T16:00:17.167Z,102320.22
2022-10-05T16:06:01.220Z,102335.56
2022-10-05T16:10:59.937Z,102312.56
2022-10-05T16:16:25.525Z,102345.03
2022-10-05T16:21:54.323Z,102326.91
2022-10-05T16:32:57.327Z,102297.56
2022-10-05T16:38:17.918Z,102335.31
2022-10-05T16:43:55.461Z,102356.88
2022-10-05T16:49:20.467Z,102355.88
2022-10-05T16:55:03.355Z,102358.47
2022-10-05T17:00:41.401Z,102368.00
2022-10-05T17:05:44.960Z,102371.91
2022-10-05T17:11:03.485Z,102342.16
2022-10-05T17:16:29.569Z,102383.84
2022-10-05T17:21:47.985Z,102385.31
2022-10-05T17:26:46.555Z,102394.81
2022-10-05T17:32:18.442Z,102367.56
2022-10-05T17:37:19.405Z,102396.59
2022-10-05T17:42:26.607Z,102405.25
2022-10-05T17:48:00.891Z,102411.47
2022-10-05T17:53:43.352Z,102380.97
2022-10-05T17:58:45.820Z,102418.00
2022-10-05T18:03:55.790Z,102390.16
2022-10-05T18:09:21.735Z,102419.53
2022-10-05T18:14:25.022Z,102387.25
2022-10-05T18:19:25.377Z,102385.00
2022-10-05T18:24:30.238Z,102379.22
2022-10-05T18:30:05.108Z,102426.25
2022-10-05T18:35:20.058Z,102390.31
2022-10-05T18:40:39.307Z,102421.69
2022-10-05T18:46:01.992Z,102432.91
2022-10-05T18:51:18.326Z,102425.22
2022-10-05T18:56:24.856Z,102426.31
2022-10-05T19:01:49.918Z,102384.81
2022-10-05T19:07:18.203Z,102398.19
2022-10-05T19:12:47.514Z,102439.31
2022-10-05T19:18:07.503Z,102438.13
2022-10-05T19:23:30.067Z,102435.75
2022-10-05T19:28:37.782Z,102409.28
2022-10-05T19:33:55.314Z,102434.81
2022-10-05T19:39:43.092Z,102430.94
2022-10-05T19:45:26.460Z,102390.72
2022-10-05T19:50:24.530Z,102450.34
2022-10-05T19:55:32.740Z,102449.28
2022-10-05T20:00:48.011Z,102388.84
2022-10-05T20:05:46.243Z,102445.00
2022-10-05T20:16:40.867Z,102456.47
2022-10-05T20:21:46.319Z,102454.28
2022-10-05T20:27:17.823Z,102412.03
2022-10-05T20:32:34.477Z,102414.09
2022-10-05T20:38:04.179Z,102428.84
2022-10-05T20:43:22.901Z,102400.13
2022-10-05T20:48:53.697Z,102427.72
2022-10-05T20:54:10.425Z,102431.59
2022-10-05T20:59:13.270Z,102394.31
2022-10-05T21:04:11.135Z,102459.31
2022-10-05T21:09:15.934Z,102416.75
2022-10-05T21:14:16.622Z,102386.91
2022-10-05T21:20:15.827Z,102413.06
2022-10-05T21:25:16.014Z,102380.34
2022-10-05T21:30:19.136Z,102406.63
2022-10-05T21:35:24.960Z,102416.91
2022-10-05T21:40:28.533Z,102397.59
2022-10-05T21:45:27.625Z,102389.63
2022-10-05T21:50:26.762Z,102392.41
2022-10-05T21:55:26.139Z,102376.06
2022-10-05T22:00:27.869Z,102394.75
2022-10-05T22:05:42.988Z,102408.59
2022-10-05T22:10:43.657Z,102363.84
2022-10-05T22:15:44.663Z,102397.34
2022-10-05T22:20:43.233Z,102362.53
2022-10-05T22:25:43.476Z,102352.84
2022-10-05T22:30:45.869Z,102379.59
2022-10-05T22:35:50.998Z,102406.81
2022-10-05T22:40:52.960Z,102415.25
2022-10-05T22:45:54.080Z,102409.94
2022-10-05T22:50:52.887Z,102395.38
2022-10-05T22:55:55.080Z,102361.00
2022-10-05T23:00:58.506Z,102412.03
2022-10-05T23:06:05.166Z,102367.50
2022-10-05T23:11:17.279Z,102377.88
2022-10-05T23:16:21.769Z,102384.56
2022-10-05T23:21:26.365Z,102371.22
2022-10-05T23:26:28.604Z,102367.94
2022-10-05T23:31:34.751Z,102363.25
2022-10-05T23:36:34.151Z,102379.31
2022-10-05T23:41:35.993Z,102374.31
2022-10-05T23:46:40.344Z,102378.56
2022-10-05T23:51:39.003Z,102371.19
2022-10-05T23:56:43.248Z,102396.28
